Time;durP1;ratioP1;P1;durP2;ratioP2;P2;SDS_P1;SDS_P2;PMS_P1;PMS_P2;Temp;Humidity;BMP_temperature;BMP_pressure;BME280_temperature;BME280_humidity;BME280_pressure;Samples;Min_cycle;Max_cycle;Signal;HPM_P1;HPM_P2
2021/05/11 00:01:40;;;;;;;5.53;3.37;;;21.40;1.00;;;;;;5063792;28;20198;-55
2021/05/11 00:04:06;;;;;;;4.20;2.90;;;21.40;1.00;;;;;;5069595;28;20576;-54
2021/05/11 00:06:32;;;;;;;5.00;3.23;;;21.50;1.00;;;;;;5069675;28;20673;-53
2021/05/11 00:08:58;;;;;;;3.70;3.33;;;21.40;1.00;;;;;;5069982;28;20472;-55
2021/05/11 00:11:23;;;;;;;10.10;3.83;;;21.40;1.00;;;;;;5069230;28;20954;-55
2021/05/11 00:13:49;;;;;;;4.57;3.57;;;21.30;1.00;;;;;;5069851;28;20553;-54
2021/05/11 00:16:15;;;;;;;4.03;3.30;;;21.30;1.00;;;;;;5071070;28;20641;-53
2021/05/11 00:18:40;;;;;;;5.40;3.17;;;21.10;1.00;;;;;;5065628;28;20184;-53
2021/05/11 00:21:06;;;;;;;3.20;3.00;;;21.10;1.00;;;;;;5070133;28;20217;-54
2021/05/11 00:23:32;;;;;;;4.73;3.13;;;21.10;1.00;;;;;;5068297;28;20180;-54
2021/05/11 00:25:58;;;;;;;3.13;2.83;;;21.20;1.00;;;;;;5070447;28;20283;-54
2021/05/11 00:28:24;;;;;;;6.87;3.20;;;21.10;1.00;;;;;;5067913;28;20187;-53
2021/05/11 00:30:50;;;;;;;3.30;2.90;;;21.10;1.00;;;;;;5066948;28;20482;-52
2021/05/11 00:33:16;;;;;;;3.80;3.27;;;21.00;1.00;;;;;;5068236;28;20469;-54
2021/05/11 00:35:42;;;;;;;4.97;3.47;;;21.00;1.00;;;;;;5068256;28;20532;-54
2021/05/11 00:38:07;;;;;;;5.93;3.17;;;20.90;1.00;;;;;;5068864;28;20441;-54
2021/05/11 00:40:33;;;;;;;4.67;3.20;;;21.00;1.00;;;;;;5067615;28;20533;-53
2021/05/11 00:42:58;;;;;;;6.37;3.30;;;21.00;1.00;;;;;;5065733;28;20191;-53
2021/05/11 00:45:24;;;;;;;4.00;3.60;;;21.00;1.00;;;;;;5068039;28;20206;-53
2021/05/11 00:47:49;;;;;;;6.93;3.03;;;21.00;1.00;;;;;;5069442;28;20194;-53
2021/05/11 00:50:15;;;;;;;3.33;3.03;;;21.00;1.00;;;;;;5069713;28;20183;-54
2021/05/11 00:52:41;;;;;;;3.93;3.47;;;20.90;1.00;;;;;;5076142;28;20336;-53
2021/05/11 00:55:07;;;;;;;4.73;3.10;;;20.90;1.00;;;;;;5065544;28;20191;-54
2021/05/11 00:57:34;;;;;;;3.27;2.77;;;20.90;1.00;;;;;;5067568;28;20191;-54
2021/05/11 01:00:00;;;;;;;6.37;3.17;;;20.80;1.00;;;;;;5066435;28;20939;-54
2021/05/11 01:02:26;;;;;;;4.70;3.40;;;20.70;1.00;;;;;;5068361;28;20437;-53
2021/05/11 01:04:52;;;;;;;5.50;3.00;;;20.80;1.00;;;;;;5069104;28;20442;-54
2021/05/11 01:07:17;;;;;;;4.60;3.17;;;20.80;1.00;;;;;;5068895;28;20198;-53
2021/05/11 01:09:43;;;;;;;3.70;3.20;;;20.80;1.00;;;;;;5072474;28;20192;-54
2021/05/11 01:12:09;;;;;;;3.93;3.17;;;20.70;1.00;;;;;;5069029;28;20295;-53
2021/05/11 01:14:35;;;;;;;4.93;3.13;;;20.70;1.00;;;;;;5072393;28;20179;-53
2021/05/11 01:17:02;;;;;;;4.50;3.43;;;20.80;1.00;;;;;;5065880;28;20449;-53
2021/05/11 01:24:41;;;;;;;5.10;3.77;;;20.70;1.00;;;;;;5064331;28;20449;-53
2021/05/11 01:29:48;;;;;;;4.27;3.60;;;20.70;1.00;;;;;;5066965;28;20675;-53
2021/05/11 01:46:25;;;;;;;3.77;3.33;;;20.70;1.00;;;;;;5065260;28;20436;-54
2021/05/11 02:23:18;;;;;;;4.20;3.80;;;20.40;1.00;;;;;;5069820;28;20498;-54
2021/05/11 02:25:43;;;;;;;5.27;3.60;;;20.50;1.00;;;;;;5071143;28;20441;-54
2021/05/11 02:28:09;;;;;;;4.13;3.73;;;20.50;1.00;;;;;;5067151;28;20175;-54
2021/05/11 02:30:35;;;;;;;4.50;3.27;;;20.50;1.00;;;;;;5075619;28;20301;-53
2021/05/11 02:33:02;;;;;;;4.37;3.53;;;20.40;1.00;;;;;;5072242;28;20673;-53
2021/05/11 02:35:28;;;;;;;4.40;3.87;;;20.40;1.00;;;;;;5071344;28;20191;-54
2021/05/11 02:37:53;;;;;;;3.37;3.07;;;20.70;1.00;;;;;;5075460;28;20502;-53
2021/05/11 02:40:21;;;;;;;4.53;3.47;;;20.40;1.00;;;;;;5072171;28;20195;-54
2021/05/11 02:42:50;;;;;;;4.17;3.77;;;20.30;1.00;;;;;;5066047;28;20195;-54
2021/05/11 02:45:16;;;;;;;5.70;3.70;;;20.30;1.00;;;;;;5069582;28;20679;-53
2021/05/11 02:47:49;;;;;;;5.00;3.17;;;20.30;1.00;;;;;;5069280;28;20553;-54
2021/05/11 02:50:19;;;;;;;4.67;3.67;;;20.20;1.00;;;;;;5070621;28;20454;-53
2021/05/11 02:52:46;;;;;;;4.30;3.90;;;20.20;1.00;;;;;;5071506;28;20832;-54
2021/05/11 02:55:12;;;;;;;4.40;3.50;;;20.30;1.00;;;;;;5069247;28;20481;-54
2021/05/11 02:57:38;;;;;;;4.40;3.40;;;20.40;1.00;;;;;;5069521;28;20445;-55
2021/05/11 03:00:05;;;;;;;5.00;3.70;;;20.60;1.00;;;;;;5070179;28;20609;-54
2021/05/11 03:02:31;;;;;;;5.57;3.27;;;20.70;1.00;;;;;;5071122;28;20278;-53
2021/05/11 03:04:56;;;;;;;4.87;4.00;;;20.50;1.00;;;;;;5071447;28;20536;-53
2021/05/11 03:07:22;;;;;;;5.27;4.00;;;20.40;1.00;;;;;;5075445;28;20226;-55
2021/05/11 03:09:48;;;;;;;3.83;3.53;;;20.30;1.00;;;;;;5071803;28;20188;-54
2021/05/11 03:12:13;;;;;;;4.57;4.07;;;20.20;1.00;;;;;;5069260;28;20218;-54
2021/05/11 03:14:39;;;;;;;5.40;4.23;;;20.10;1.00;;;;;;5076686;28;20183;-53
2021/05/11 03:17:04;;;;;;;4.70;4.23;;;20.20;1.00;;;;;;5067916;28;20275;-54
2021/05/11 03:19:30;;;;;;;4.30;3.90;;;20.10;1.00;;;;;;5076130;28;20191;-53
2021/05/11 03:21:55;;;;;;;5.10;4.30;;;19.90;1.00;;;;;;5072862;28;20191;-53
2021/05/11 03:24:21;;;;;;;6.43;5.23;;;19.70;1.00;;;;;;5068717;28;20187;-53
2021/05/11 03:26:46;;;;;;;5.60;4.10;;;19.60;1.00;;;;;;5075981;28;20187;-54
2021/05/11 03:29:12;;;;;;;10.13;4.00;;;19.60;1.00;;;;;;5068823;28;20190;-55
2021/05/11 03:31:38;;;;;;;6.37;4.07;;;19.50;1.00;;;;;;5070041;28;20241;-54
2021/05/11 03:34:03;;;;;;;6.27;4.27;;;19.40;1.00;;;;;;5070365;28;20187;-53
2021/05/11 03:36:29;;;;;;;4.70;4.30;;;19.40;1.00;;;;;;5071126;28;20183;-54
2021/05/11 03:38:56;;;;;;;4.33;3.93;;;19.50;1.00;;;;;;5072892;28;20267;-53
2021/05/11 03:41:28;;;;;;;4.20;3.80;;;19.60;1.00;;;;;;5074307;28;20270;-53
2021/05/11 03:43:59;;;;;;;7.10;3.80;;;19.50;1.00;;;;;;5068066;28;20460;-53
2021/05/11 03:46:24;;;;;;;5.33;3.70;;;19.50;1.00;;;;;;5073764;28;20467;-54
2021/05/11 03:48:50;;;;;;;5.50;4.03;;;19.50;1.00;;;;;;5071709;28;20442;-53
2021/05/11 03:51:17;;;;;;;4.07;3.70;;;19.50;1.00;;;;;;5070688;28;20206;-54
2021/05/11 03:53:43;;;;;;;6.07;4.67;;;19.60;1.00;;;;;;5069239;28;20222;-55
2021/05/11 03:56:08;;;;;;;5.10;4.23;;;19.60;1.00;;;;;;5070782;28;20870;-54
2021/05/11 03:58:34;;;;;;;4.13;3.70;;;19.70;1.00;;;;;;5068506;28;20544;-53
2021/05/11 04:01:00;;;;;;;3.90;3.60;;;19.70;1.00;;;;;;5071790;28;20195;-54
2021/05/11 04:03:25;;;;;;;8.90;4.07;;;19.80;1.00;;;;;;5075595;28;20223;-53
2021/05/11 04:05:53;;;;;;;3.90;3.50;;;19.80;1.00;;;;;;5076538;28;20237;-54
2021/05/11 04:08:54;;;;;;;4.80;4.30;;;19.80;1.00;;;;;;5078894;28;20180;-54
2021/05/11 04:16:39;;;;;;;4.43;3.40;;;20.00;1.00;;;;;;5071124;28;20433;-54
2021/05/11 04:19:05;;;;;;;4.93;4.43;;;20.10;1.00;;;;;;5070729;28;20819;-54
2021/05/11 04:21:31;;;;;;;10.90;4.23;;;20.10;1.00;;;;;;5070057;28;20452;-55
2021/05/11 04:23:56;;;;;;;4.97;4.10;;;20.20;1.00;;;;;;5069817;28;20273;-54
2021/05/11 04:26:23;;;;;;;5.20;3.90;;;20.20;1.00;;;;;;5070595;28;20587;-55
2021/05/11 04:28:50;;;;;;;4.33;3.50;;;20.30;1.00;;;;;;5070736;28;20191;-54
2021/05/11 04:31:18;;;;;;;4.30;3.90;;;20.40;1.00;;;;;;5069557;28;20966;-52
2021/05/11 04:33:44;;;;;;;5.40;4.17;;;20.50;1.00;;;;;;5070540;28;20458;-55
2021/05/11 04:36:10;;;;;;;7.50;3.97;;;20.70;1.00;;;;;;5070507;28;20914;-53
2021/05/11 04:38:37;;;;;;;8.23;3.97;;;20.80;1.00;;;;;;5070325;28;20492;-55
2021/05/11 04:41:04;;;;;;;8.20;3.57;;;20.90;1.00;;;;;;5068326;28;20488;-56
2021/05/11 04:43:31;;;;;;;6.00;4.00;;;21.10;1.00;;;;;;5064895;28;20540;-55
2021/05/11 04:46:07;;;;;;;4.30;3.90;;;21.20;1.00;;;;;;5078470;28;20930;-55
2021/05/11 04:48:33;;;;;;;7.30;3.87;;;21.20;1.00;;;;;;5070295;28;20867;-55
2021/05/11 04:50:59;;;;;;;9.97;4.20;;;21.30;1.00;;;;;;5072431;28;20453;-55
2021/05/11 04:53:25;;;;;;;6.67;4.40;;;21.50;1.00;;;;;;5068669;28;20476;-54
2021/05/11 04:55:50;;;;;;;6.13;4.67;;;21.70;1.00;;;;;;5073407;28;20187;-54
2021/05/11 04:58:16;;;;;;;5.53;4.40;;;21.80;1.00;;;;;;5067992;28;20661;-54
2021/05/11 05:00:42;;;;;;;4.17;3.87;;;22.00;1.00;;;;;;5067837;28;20183;-54
2021/05/11 05:03:11;;;;;;;9.70;3.50;;;22.10;1.00;;;;;;5071951;28;20232;-55
2021/05/11 05:05:36;;;;;;;4.20;3.67;;;22.20;1.00;;;;;;5070233;28;20191;-56
2021/05/11 05:08:02;;;;;;;4.77;3.40;;;22.20;1.00;;;;;;5072941;28;20968;-54
2021/05/11 05:10:27;;;;;;;4.70;3.37;;;22.30;1.00;;;;;;5070350;28;20188;-55
2021/05/11 05:12:53;;;;;;;4.17;3.70;;;22.40;1.00;;;;;;5069730;28;20280;-54
2021/05/11 05:15:18;;;;;;;6.37;3.87;;;22.50;1.00;;;;;;5074260;28;20206;-55
2021/05/11 05:17:44;;;;;;;5.37;3.80;;;22.80;1.00;;;;;;5087340;28;20653;-54
2021/05/11 05:20:10;;;;;;;3.63;3.00;;;22.70;1.00;;;;;;5069938;28;20629;-54
2021/05/11 05:22:36;;;;;;;3.80;3.13;;;22.70;1.00;;;;;;5073482;28;20574;-56
2021/05/11 05:25:22;;;;;;;6.80;4.20;;;22.70;1.00;;;;;;5078741;28;20433;-56
2021/05/11 05:30:17;;;;;;;8.20;3.57;;;22.60;1.00;;;;;;5069747;28;20510;-56
2021/05/11 05:32:42;;;;;;;4.77;3.30;;;22.70;1.00;;;;;;5067298;28;20473;-55
2021/05/11 05:35:08;;;;;;;7.03;3.53;;;22.90;1.00;;;;;;5070043;28;20433;-54
2021/05/11 05:37:34;;;;;;;5.83;3.00;;;23.00;1.00;;;;;;5070649;28;20218;-56
2021/05/11 05:40:02;;;;;;;3.83;3.50;;;23.10;1.00;;;;;;5073961;28;21184;-54
2021/05/11 05:42:27;;;;;;;4.67;3.70;;;23.20;1.00;;;;;;5073140;28;20176;-54
2021/05/11 05:44:53;;;;;;;5.97;4.70;;;23.30;1.00;;;;;;5073720;28;20468;-55
2021/05/11 05:47:19;;;;;;;4.80;3.07;;;23.40;1.00;;;;;;5074292;28;20187;-54
2021/05/11 05:49:47;;;;;;;4.83;3.63;;;23.40;1.00;;;;;;5073204;28;20542;-57
2021/05/11 05:52:20;;;;;;;3.63;3.30;;;23.40;1.00;;;;;;5069829;28;20598;-55
2021/05/11 05:54:47;;;;;;;4.20;3.13;;;23.50;1.00;;;;;;5080064;28;20521;-55
2021/05/11 05:57:13;;;;;;;3.63;3.30;;;23.50;1.00;;;;;;5070497;28;20441;-54
2021/05/11 05:59:40;;;;;;;5.93;3.80;;;23.40;1.00;;;;;;5071217;28;21219;-54
2021/05/11 06:02:15;;;;;;;4.77;3.40;;;23.50;1.00;;;;;;5072494;28;20445;-56
2021/05/11 06:04:40;;;;;;;3.93;2.70;;;23.40;1.00;;;;;;5077700;28;20433;-55
2021/05/11 06:07:06;;;;;;;4.63;3.37;;;23.50;1.00;;;;;;5073319;28;20445;-54
2021/05/11 06:09:31;;;;;;;6.53;3.73;;;23.50;1.00;;;;;;5075812;28;20191;-53
2021/05/11 06:12:01;;;;;;;6.03;3.23;;;23.40;1.00;;;;;;5073015;28;20187;-56
2021/05/11 06:19:42;;;;;;;5.13;3.50;;;23.20;1.00;;;;;;5072102;28;20498;-56
2021/05/11 06:22:08;;;;;;;5.47;3.20;;;23.10;1.00;;;;;;5072838;28;20484;-55
2021/05/11 06:24:34;;;;;;;3.77;3.37;;;23.30;1.00;;;;;;5073237;28;20958;-55
2021/05/11 06:27:00;;;;;;;4.40;3.80;;;23.40;1.00;;;;;;5083093;28;20453;-56
2021/05/11 06:29:28;;;;;;;3.37;3.07;;;23.50;1.00;;;;;;5071193;28;20445;-55
2021/05/11 06:31:54;;;;;;;7.77;3.60;;;23.60;1.00;;;;;;5072387;28;20465;-56
2021/05/11 06:34:19;;;;;;;21.27;4.43;;;23.70;1.00;;;;;;5072626;28;20442;-55
2021/05/11 06:36:45;;;;;;;6.60;3.80;;;23.90;1.00;;;;;;5072589;28;20186;-54
2021/05/11 06:39:13;;;;;;;5.73;3.17;;;24.10;1.00;;;;;;5073058;28;20241;-56
2021/05/11 06:41:40;;;;;;;3.27;2.97;;;24.20;1.00;;;;;;5087357;28;20207;-55
2021/05/11 06:44:13;;;;;;;5.03;3.63;;;24.20;1.00;;;;;;5076664;28;20430;-55
2021/05/11 06:54:15;;;;;;;4.03;3.20;;;25.10;1.00;;;;;;5080319;28;20840;-54
2021/05/11 06:56:45;;;;;;;6.83;3.00;;;25.10;1.00;;;;;;5072175;28;20544;-55
2021/05/11 06:59:12;;;;;;;7.53;3.20;;;25.10;1.00;;;;;;5069049;28;20229;-54
2021/05/11 07:01:37;;;;;;;5.10;3.60;;;25.30;1.00;;;;;;5078393;28;20498;-54
2021/05/11 07:04:03;;;;;;;4.13;3.30;;;25.60;1.00;;;;;;5076668;28;20434;-54
2021/05/11 07:06:29;;;;;;;4.53;3.20;;;25.50;1.00;;;;;;5072213;28;20207;-55
2021/05/11 07:08:59;;;;;;;5.47;3.80;;;25.20;1.00;;;;;;5072102;28;20187;-55
2021/05/11 07:11:31;;;;;;;4.17;3.47;;;25.00;1.00;;;;;;5070911;28;20167;-55
2021/05/11 07:13:57;;;;;;;4.30;3.20;;;25.00;1.00;;;;;;5071525;28;20529;-56
2021/05/11 07:16:22;;;;;;;5.33;3.53;;;25.10;1.00;;;;;;5073136;28;20541;-55
2021/05/11 07:18:48;;;;;;;5.37;3.50;;;25.30;1.00;;;;;;5071729;28;20688;-55
2021/05/11 07:21:13;;;;;;;5.43;3.03;;;25.30;1.00;;;;;;5071263;28;20582;-55
2021/05/11 07:23:39;;;;;;;8.20;3.10;;;25.40;1.00;;;;;;5071736;28;20663;-55
2021/05/11 07:26:24;;;;;;;5.73;3.23;;;25.40;1.00;;;;;;5070178;28;20190;-54
2021/05/11 07:31:36;;;;;;;5.63;4.50;;;25.40;1.00;;;;;;5071491;28;20460;-55
2021/05/11 07:34:03;;;;;;;4.50;3.10;;;25.60;1.00;;;;;;5071447;28;20794;-55
2021/05/11 07:36:29;;;;;;;4.07;3.43;;;26.10;1.00;;;;;;5071670;28;20483;-54
2021/05/11 07:38:54;;;;;;;5.23;3.67;;;26.20;1.00;;;;;;5071900;28;20434;-54
2021/05/11 07:41:20;;;;;;;5.20;3.23;;;26.30;1.00;;;;;;5070721;28;20183;-54
2021/05/11 07:43:54;;;;;;;6.67;3.20;;;26.30;1.00;;;;;;5083150;28;20296;-53
2021/05/11 07:52:15;;;;;;;6.20;3.30;;;26.50;1.00;;;;;;5078855;28;20517;-55
2021/05/11 08:05:54;;;;;;;5.23;3.93;;;27.30;1.00;;;;;;5070395;28;21018;-57
2021/05/11 08:16:31;;;;;;;5.03;3.77;;;27.40;1.00;;;;;;5070929;28;20527;-56
2021/05/11 08:19:07;;;;;;;5.10;3.53;;;27.40;1.00;;;;;;5070811;28;20954;-54
2021/05/11 08:29:59;;;;;;;6.20;3.63;;;27.40;1.00;;;;;;5070329;28;20482;-55
2021/05/11 08:32:24;;;;;;;4.03;3.00;;;27.40;1.00;;;;;;5069642;28;20810;-54
2021/05/11 08:34:50;;;;;;;6.97;4.27;;;27.50;1.00;;;;;;5067919;28;20209;-55
2021/05/11 08:37:16;;;;;;;4.43;3.17;;;27.90;1.00;;;;;;5070410;28;20183;-55
2021/05/11 08:39:46;;;;;;;5.30;3.50;;;27.80;1.00;;;;;;5070254;28;20262;-55
2021/05/11 08:42:12;;;;;;;6.03;3.80;;;27.70;1.00;;;;;;5070665;28;20449;-54
2021/05/11 08:44:37;;;;;;;5.67;3.87;;;27.70;1.00;;;;;;5070532;28;20909;-53
2021/05/11 08:47:05;;;;;;;10.07;4.47;;;27.70;1.00;;;;;;5074528;28;20532;-55
2021/05/11 08:49:32;;;;;;;3.90;3.60;;;27.80;1.00;;;;;;5079154;28;20183;-56
2021/05/11 08:52:06;;;;;;;4.63;3.70;;;27.90;1.00;;;;;;5070228;28;20469;-55
2021/05/11 09:16:18;;;;;;;7.30;3.90;;;27.50;1.00;;;;;;5067410;28;20472;-55
2021/05/11 09:26:57;;;;;;;4.30;3.70;;;28.30;1.00;;;;;;5069290;28;20469;-55
2021/05/11 09:54:53;;;;;;;7.37;6.77;;;29.20;1.00;;;;;;5070345;28;20487;-56
2021/05/11 10:39:55;;;;;;;4.50;3.60;;;30.20;1.00;;;;;;5073458;28;20544;-55
2021/05/11 10:43:41;;;;;;;7.57;3.83;;;30.40;1.00;;;;;;5072325;28;20214;-56
2021/05/11 10:48:27;;;;;;;5.20;4.10;;;30.30;1.00;;;;;;5073579;28;20524;-55
2021/05/11 10:50:58;;;;;;;5.37;3.33;;;30.30;1.00;;;;;;5071514;28;20484;-54
2021/05/11 10:53:59;;;;;;;3.80;3.40;;;30.30;1.00;;;;;;5072716;28;20465;-56
2021/05/11 10:56:31;;;;;;;5.20;4.80;;;30.20;1.00;;;;;;5071682;28;20437;-55
2021/05/11 11:02:23;;;;;;;6.30;3.53;;;30.00;1.00;;;;;;5072756;28;20796;-55
2021/05/11 11:04:45;;;;;;;4.30;3.63;;;30.20;1.00;;;;;;5072510;28;20433;-55
2021/05/11 11:07:11;;;;;;;6.63;3.60;;;30.20;1.00;;;;;;5071579;28;20433;-55
2021/05/11 11:09:39;;;;;;;7.23;4.03;;;29.90;1.00;;;;;;5071877;28;20773;-54
2021/05/11 11:12:06;;;;;;;4.30;3.90;;;29.60;1.00;;;;;;5072364;28;20467;-56
2021/05/11 11:14:36;;;;;;;5.30;4.13;;;29.60;1.00;;;;;;5072309;28;20440;-55
2021/05/11 11:17:06;;;;;;;6.67;4.57;;;29.90;1.00;;;;;;5073490;28;20477;-56
2021/05/11 11:19:33;;;;;;;5.20;4.67;;;;;;;;;;5072293;28;20579;-56
2021/05/11 11:23:32;;;;;;;6.23;4.30;;;30.20;1.00;;;;;;5071050;28;20433;-56
2021/05/11 11:24:51;;;;;;;6.17;3.70;;;30.20;1.00;;;;;;5072343;28;20548;-55
2021/05/11 11:27:27;;;;;;;6.33;3.67;;;30.00;1.00;;;;;;5072535;28;20521;-56
2021/05/11 11:30:02;;;;;;;4.60;4.20;;;29.90;1.00;;;;;;5068137;28;20171;-55
2021/05/11 11:32:28;;;;;;;3.90;3.50;;;29.90;1.00;;;;;;5070607;28;20472;-55
2021/05/11 11:34:56;;;;;;;4.03;3.73;;;30.20;1.00;;;;;;5071427;28;20442;-55
2021/05/11 11:37:24;;;;;;;6.67;3.60;;;30.40;1.00;;;;;;5068983;28;20180;-56
2021/05/11 11:39:52;;;;;;;3.70;3.40;;;30.50;1.00;;;;;;5072047;28;20942;-55
2021/05/11 11:42:24;;;;;;;6.97;3.70;;;30.40;1.00;;;;;;5072226;28;20442;-57
2021/05/11 11:44:56;;;;;;;6.23;3.70;;;30.40;1.00;;;;;;5072254;28;20926;-54
2021/05/11 11:47:24;;;;;;;6.97;3.97;;;30.70;1.00;;;;;;5072230;28;20799;-55
2021/05/11 11:49:52;;;;;;;5.37;3.40;;;30.60;1.00;;;;;;5071921;28;20864;-56
2021/05/11 11:52:42;;;;;;;5.07;3.53;;;30.50;1.00;;;;;;5071846;28;20850;-56
2021/05/11 11:55:36;;;;;;;4.00;3.60;;;30.30;1.00;;;;;;5070308;28;20433;-55
2021/05/11 11:58:01;;;;;;;6.30;3.70;;;30.30;1.00;;;;;;5072981;28;20433;-55
2021/05/11 12:00:29;;;;;;;4.80;4.03;;;30.40;1.00;;;;;;5071832;28;20552;-55
2021/05/11 12:03:04;;;;;;;5.67;3.33;;;30.20;1.00;;;;;;5071746;28;20179;-57
2021/05/11 12:05:31;;;;;;;4.83;3.50;;;30.20;1.00;;;;;;5067761;28;20494;-55
2021/05/11 12:08:19;;;;;;;5.70;3.53;;;30.30;1.00;;;;;;5072223;28;20441;-54
2021/05/11 12:10:51;;;;;;;5.13;4.63;;;30.60;1.00;;;;;;5071406;28;20800;-57
2021/05/11 12:13:25;;;;;;;3.60;3.30;;;30.70;1.00;;;;;;5076681;28;20539;-57
2021/05/11 12:16:20;;;;;;;4.90;3.80;;;30.80;1.00;;;;;;5071449;28;20433;-55
2021/05/11 12:19:10;;;;;;;4.97;3.60;;;30.90;1.00;;;;;;5071329;28;20433;-56
2021/05/11 12:22:15;;;;;;;4.53;2.97;;;30.90;1.00;;;;;;5068752;28;20434;-56
2021/05/11 12:24:42;;;;;;;6.13;5.20;;;30.60;1.00;;;;;;5006931;28;20786;-54
2021/05/11 12:27:19;;;;;;;4.27;3.70;;;30.50;1.00;;;;;;5009420;28;20444;-56
2021/05/11 12:30:03;;;;;;;6.93;3.70;;;30.60;1.00;;;;;;5043597;28;20444;-55
2021/05/11 12:32:29;;;;;;;6.23;3.23;;;31.00;1.00;;;;;;5071052;28;20556;-55
2021/05/11 12:35:08;;;;;;;5.63;3.30;;;31.00;1.00;;;;;;5069390;28;20521;-54
2021/05/11 12:37:52;;;;;;;5.70;3.80;;;30.90;1.00;;;;;;5069653;28;20182;-55
2021/05/11 12:40:26;;;;;;;4.23;3.03;;;30.80;1.00;;;;;;5071049;28;20441;-54
2021/05/11 12:42:53;;;;;;;4.13;3.63;;;30.60;1.00;;;;;;5070763;28;20541;-55
2021/05/11 12:45:18;;;;;;;4.50;3.43;;;30.60;1.00;;;;;;5076241;28;20444;-56
2021/05/11 12:48:02;;;;;;;4.03;3.63;;;30.50;1.00;;;;;;5070476;28;20912;-54
2021/05/11 12:50:39;;;;;;;9.73;3.53;;;30.50;1.00;;;;;;5070483;28;20191;-54
2021/05/11 12:53:36;;;;;;;4.60;3.40;;;30.70;1.00;;;;;;5070235;28;20472;-54
2021/05/11 12:56:24;;;;;;;3.37;2.83;;;30.60;1.00;;;;;;5069559;28;20441;-55
2021/05/11 12:59:04;;;;;;;7.33;3.23;;;30.40;1.00;;;;;;5070787;28;20437;-56
2021/05/11 13:13:42;;;;;;;6.03;2.97;;;30.60;1.00;;;;;;5070242;28;20444;-56
2021/05/11 13:15:30;;;;;;;6.83;3.60;;;30.60;1.00;;;;;;5071404;28;20530;-54
2021/05/11 13:26:12;;;;;;;5.90;2.43;;;30.50;1.00;;;;;;5070853;28;20503;-55
2021/05/11 13:28:52;;;;;;;4.53;2.17;;;30.60;1.00;;;;;;5070651;28;20842;-56
2021/05/11 13:31:33;;;;;;;4.87;2.77;;;30.70;1.00;;;;;;5069100;28;20587;-58
2021/05/11 13:34:09;;;;;;;5.27;2.43;;;30.80;1.00;;;;;;5070469;28;20561;-58
2021/05/11 13:36:43;;;;;;;5.80;2.50;;;30.90;1.00;;;;;;5069587;28;20434;-55
2021/05/11 13:39:10;;;;;;;2.80;2.60;;;30.70;1.00;;;;;;5070116;28;20954;-56
2021/05/11 13:41:36;;;;;;;3.33;3.03;;;30.90;1.00;;;;;;5066856;28;20520;-55
2021/05/11 13:44:02;;;;;;;4.40;2.70;;;30.90;1.00;;;;;;5070320;28;20884;-56
2021/05/11 13:46:28;;;;;;;3.77;2.90;;;30.70;1.00;;;;;;5070554;28;20186;-58
2021/05/11 13:48:53;;;;;;;9.40;3.40;;;30.70;1.00;;;;;;5070349;28;20794;-56
2021/05/11 13:51:20;;;;;;;6.47;2.63;;;30.70;1.00;;;;;;5070630;28;20176;-56
2021/05/11 13:53:56;;;;;;;6.90;2.93;;;30.60;1.00;;;;;;5068935;28;20207;-56
2021/05/11 14:04:35;;;;;;;6.50;2.33;;;30.70;1.00;;;;;;5072325;28;20522;-56
2021/05/11 14:07:01;;;;;;;3.77;3.13;;;31.50;1.00;;;;;;5072635;28;20930;-56
2021/05/11 14:09:27;;;;;;;5.43;2.70;;;30.40;1.00;;;;;;5069350;28;20206;-55
2021/05/11 14:11:52;;;;;;;5.93;3.00;;;31.10;1.00;;;;;;5081633;28;20182;-55
2021/05/11 14:14:18;;;;;;;3.77;3.10;;;31.40;1.00;;;;;;5078713;28;20273;-56
2021/05/11 14:16:45;;;;;;;5.37;2.90;;;32.80;1.00;;;;;;5080160;28;20182;-56
2021/05/11 14:19:12;;;;;;;6.80;3.10;;;34.20;1.00;;;;;;5076749;28;20179;-56
2021/05/11 14:21:38;;;;;;;7.20;3.57;;;35.70;1.00;;;;;;5073660;28;20515;-57
2021/05/11 14:24:04;;;;;;;3.87;3.47;;;36.40;1.00;;;;;;5074288;28;20437;-57
2021/05/11 14:26:30;;;;;;;3.63;2.93;;;36.50;1.00;;;;;;5074849;28;20210;-56
2021/05/11 14:28:56;;;;;;;4.40;3.33;;;36.20;1.00;;;;;;5082668;28;20183;-58
2021/05/11 14:31:26;;;;;;;5.03;2.87;;;36.70;1.00;;;;;;5074600;28;20975;-55
2021/05/11 14:33:52;;;;;;;4.40;2.70;;;37.50;1.00;;;;;;5077178;28;20842;-55
2021/05/11 14:36:19;;;;;;;4.77;2.70;;;37.20;1.00;;;;;;5071974;28;20440;-56
2021/05/11 14:38:46;;;;;;;4.60;2.10;;;36.30;1.00;;;;;;5072715;28;20186;-56
2021/05/11 14:41:13;;;;;;;4.20;2.27;;;36.50;1.00;;;;;;5085144;28;20468;-55
2021/05/11 14:43:40;;;;;;;6.37;2.23;;;37.20;1.00;;;;;;5058040;28;20451;-58
2021/05/11 14:46:08;;;;;;;3.23;2.57;;;37.90;1.00;;;;;;5072159;28;20480;-57
2021/05/11 14:48:35;;;;;;;4.57;1.87;;;37.40;1.00;;;;;;5071776;28;20433;-57
2021/05/11 14:51:01;;;;;;;2.90;1.80;;;36.70;1.00;;;;;;5073206;28;21009;-57
2021/05/11 14:53:28;;;;;;;4.43;3.00;;;37.10;1.00;;;;;;5076683;28;20560;-57
2021/05/11 14:55:54;;;;;;;3.60;2.50;;;37.60;1.00;;;;;;5072890;28;20878;-57
2021/05/11 14:58:20;;;;;;;4.33;2.47;;;38.10;1.00;;;;;;5071395;28;20480;-57
2021/05/11 15:00:46;;;;;;;4.20;2.20;;;38.20;1.00;;;;;;5066772;28;20521;-59
2021/05/11 15:03:13;;;;;;;4.60;2.07;;;37.60;1.00;;;;;;5071343;28;20936;-56
2021/05/11 15:05:39;;;;;;;2.87;2.30;;;36.80;1.00;;;;;;5071794;28;20183;-57
2021/05/11 15:08:05;;;;;;;4.33;2.57;;;36.30;1.00;;;;;;5069651;28;20448;-56
2021/05/11 15:10:31;;;;;;;2.93;1.87;;;36.50;1.00;;;;;;5071435;28;21065;-56
2021/05/11 15:12:57;;;;;;;6.30;2.40;;;37.10;1.00;;;;;;5071105;28;20522;-55
2021/05/11 15:15:23;;;;;;;5.20;2.20;;;38.00;1.00;;;;;;5072954;28;20686;-58
2021/05/11 15:20:16;;;;;;;5.50;2.83;;;39.30;1.00;;;;;;5073011;28;20222;-55
2021/05/11 15:22:42;;;;;;;3.90;2.33;;;39.60;1.00;;;;;;5071498;28;20473;-54
2021/05/11 15:25:09;;;;;;;4.30;2.60;;;40.10;1.00;;;;;;5072660;28;20198;-57
2021/05/11 15:27:35;;;;;;;6.63;3.30;;;40.30;1.00;;;;;;5073627;28;20558;-57
2021/05/11 15:30:03;;;;;;;3.00;2.53;;;40.10;1.00;;;;;;5071359;28;20469;-56
2021/05/11 15:32:53;;;;;;;5.37;2.43;;;40.50;1.00;;;;;;5072531;28;20461;-56
2021/05/11 15:35:22;;;;;;;5.93;2.70;;;39.70;1.00;;;;;;5074234;28;20789;-56
2021/05/11 15:37:52;;;;;;;3.80;2.40;;;38.10;1.00;;;;;;5072391;28;20561;-58
2021/05/11 15:40:19;;;;;;;3.67;2.70;;;36.70;1.00;;;;;;5068669;28;20907;-57
2021/05/11 15:42:45;;;;;;;4.60;2.50;;;35.30;1.00;;;;;;5070560;28;20456;-55
2021/05/11 15:45:12;;;;;;;3.47;2.63;;;34.40;1.00;;;;;;5071959;28;20442;-57
2021/05/11 15:47:38;;;;;;;5.03;2.60;;;33.90;1.00;;;;;;5070697;28;20190;-54
2021/05/11 15:50:07;;;;;;;4.03;2.87;;;33.50;1.00;;;;;;5072014;28;20459;-57
2021/05/11 15:52:33;;;;;;;2.50;2.00;;;33.20;1.00;;;;;;5071810;28;20544;-57
2021/05/11 15:54:58;;;;;;;4.60;2.67;;;32.70;1.00;;;;;;5071956;28;20525;-56
2021/05/11 15:57:24;;;;;;;2.90;2.70;;;32.50;1.00;;;;;;5072176;28;20201;-56
2021/05/11 15:59:50;;;;;;;3.30;3.00;;;32.10;1.00;;;;;;5071094;28;20171;-56
2021/05/11 16:02:15;;;;;;;4.40;3.00;;;31.70;1.00;;;;;;5070500;28;20621;-55
2021/05/11 16:04:41;;;;;;;5.20;2.87;;;31.50;1.00;;;;;;5071958;28;20187;-55
2021/05/11 16:07:06;;;;;;;6.73;3.17;;;31.20;1.00;;;;;;5071599;28;20702;-58
2021/05/11 16:09:32;;;;;;;6.13;3.10;;;31.00;1.00;;;;;;5069402;28;20241;-57
2021/05/11 16:11:57;;;;;;;4.80;2.50;;;30.90;1.00;;;;;;5071628;28;20175;-57
2021/05/11 16:14:23;;;;;;;4.40;3.03;;;30.90;1.00;;;;;;5071612;28;20179;-56
2021/05/11 16:16:49;;;;;;;3.70;2.70;;;30.70;1.00;;;;;;5071322;28;20186;-55
2021/05/11 16:19:14;;;;;;;5.00;2.80;;;30.50;1.00;;;;;;5071417;28;20175;-57
2021/05/11 16:21:40;;;;;;;5.17;2.90;;;30.40;1.00;;;;;;5071084;28;20206;-56
2021/05/11 16:24:06;;;;;;;3.20;2.57;;;30.40;1.00;;;;;;5071534;28;20187;-57
2021/05/11 16:26:31;;;;;;;9.27;3.20;;;30.40;1.00;;;;;;5071086;28;20207;-55
2021/05/11 16:28:57;;;;;;;3.77;2.57;;;30.20;1.00;;;;;;5070262;28;20505;-57
2021/05/11 16:31:23;;;;;;;5.87;2.70;;;30.10;1.00;;;;;;5070548;28;20222;-57
2021/05/11 16:33:50;;;;;;;3.43;2.20;;;30.10;1.00;;;;;;5069425;28;20203;-56
2021/05/11 16:36:16;;;;;;;3.67;2.60;;;30.10;1.00;;;;;;5071149;28;20433;-56
2021/05/11 16:38:41;;;;;;;3.37;2.20;;;30.20;1.00;;;;;;5071186;28;20511;-55
2021/05/11 16:41:08;;;;;;;7.80;4.27;;;30.20;1.00;;;;;;5069777;28;20536;-56
2021/05/11 16:43:33;;;;;;;5.00;4.57;;;30.00;1.00;;;;;;5071167;28;20441;-55
2021/05/11 16:46:04;;;;;;;7.00;5.00;;;29.40;1.00;;;;;;5071224;28;20777;-55
2021/05/11 16:48:31;;;;;;;7.03;4.20;;;28.80;1.00;;;;;;5071146;28;20575;-56
2021/05/11 16:50:57;;;;;;;11.93;5.27;;;28.30;1.00;;;;;;5070997;28;20923;-56
2021/05/11 16:53:23;;;;;;;7.83;5.77;;;28.10;1.00;;;;;;5070994;28;20468;-55
2021/05/11 16:55:49;;;;;;;5.87;5.40;;;28.10;1.00;;;;;;5071079;28;20430;-55
2021/05/11 16:58:14;;;;;;;6.27;5.40;;;27.90;1.00;;;;;;5071177;28;20179;-55
2021/05/11 17:00:42;;;;;;;6.53;5.07;;;27.70;1.00;;;;;;5070027;28;20209;-57
2021/05/11 17:03:08;;;;;;;6.17;5.57;;;27.50;1.00;;;;;;5070200;28;20549;-56
2021/05/11 17:05:34;;;;;;;5.97;5.23;;;27.10;1.00;;;;;;5070452;28;21021;-56
2021/05/11 17:08:02;;;;;;;6.10;5.60;;;26.80;1.00;;;;;;5069474;28;20445;-57
2021/05/11 17:10:29;;;;;;;6.97;5.30;;;26.70;1.00;;;;;;5067619;28;20442;-58
2021/05/11 17:12:57;;;;;;;7.20;5.87;;;26.60;1.00;;;;;;5067782;28;20827;-56